sensor_id;sensor_type;location;lat;lon;timestamp;pressure;altitude;pressure_sealevel;temperature;humidity
36932;BME280;22847;42.654;23.370;2023-04-03T00:00:37;93967.81;;;11.29;56.05
36932;BME280;22847;42.654;23.370;2023-04-03T00:03:03;94069.41;;;11.14;56.54
36932;BME280;22847;42.654;23.370;2023-04-03T00:05:28;93983.59;;;10.30;57.53
36932;BME280;22847;42.654;23.370;2023-04-03T00:07:54;94049.13;;;10.67;58.13
36932;BME280;22847;42.654;23.370;2023-04-03T00:10:19;94066.13;;;10.96;57.15
36932;BME280;22847;42.654;23.370;2023-04-03T00:12:45;93823.97;;;9.96;56.99
36932;BME280;22847;42.654;23.370;2023-04-03T00:15:10;94029.63;;;11.20;57.51
36932;BME280;22847;42.654;23.370;2023-04-03T00:17:36;93841.53;;;9.94;56.39
36932;BME280;22847;42.654;23.370;2023-04-03T00:20:03;94046.41;;;11.42;57.07
36932;BME280;22847;42.654;23.370;2023-04-03T00:22:28;94004.34;;;11.29;57.99
36932;BME280;22847;42.654;23.370;2023-04-03T00:24:54;94042.47;;;11.54;57.46
36932;BME280;22847;42.654;23.370;2023-04-03T00:27:20;94033.53;;;11.32;57.03
36932;BME280;22847;42.654;23.370;2023-04-03T00:29:45;93952.03;;;11.06;57.91
36932;BME280;22847;42.654;23.370;2023-04-03T00:32:11;93991.94;;;11.23;56.77
36932;BME280;22847;42.654;23.370;2023-04-03T00:34:36;93848.94;;;10.31;57.72
36932;BME280;22847;42.654;23.370;2023-04-03T00:37:02;94049.03;;;11.42;58.94
36932;BME280;22847;42.654;23.370;2023-04-03T00:39:27;93874.31;;;10.45;58.30
36932;BME280;22847;42.654;23.370;2023-04-03T00:41:53;94020.16;;;11.27;57.57
36932;BME280;22847;42.654;23.370;2023-04-03T00:44:20;94070.22;;;11.31;58.80
36932;BME280;22847;42.654;23.370;2023-04-03T00:46:46;94053.44;;;11.41;58.36
36932;BME280;22847;42.654;23.370;2023-04-03T00:49:11;93859.31;;;10.22;59.54
36932;BME280;22847;42.654;23.370;2023-04-03T00:51:37;93977.31;;;10.97;58.80
36932;BME280;22847;42.654;23.370;2023-04-03T00:54:05;94069.91;;;11.42;59.11
36932;BME280;22847;42.654;23.370;2023-04-03T00:56:32;94020.00;;;11.21;59.46
36932;BME280;22847;42.654;23.370;2023-04-03T00:59:05;94049.19;;;11.40;60.10
36932;BME280;22847;42.654;23.370;2023-04-03T01:01:31;94064.69;;;11.42;57.23
36932;BME280;22847;42.654;23.370;2023-04-03T01:03:59;93990.34;;;10.97;59.34
36932;BME280;22847;42.654;23.370;2023-04-03T01:06:28;94054.56;;;11.31;58.55
36932;BME280;22847;42.654;23.370;2023-04-03T01:08:56;94051.97;;;11.23;59.49
36932;BME280;22847;42.654;23.370;2023-04-03T01:11:21;93892.88;;;10.17;59.40
36932;BME280;22847;42.654;23.370;2023-04-03T01:13:47;94053.91;;;10.96;58.52
36932;BME280;22847;42.654;23.370;2023-04-03T01:16:14;94090.78;;;11.17;59.34
36932;BME280;22847;42.654;23.370;2023-04-03T01:18:40;94081.16;;;11.18;59.31
36932;BME280;22847;42.654;23.370;2023-04-03T01:21:30;94080.53;;;11.16;59.76
36932;BME280;22847;42.654;23.370;2023-04-03T01:26:58;94015.75;;;10.79;60.08
36932;BME280;22847;42.654;23.370;2023-04-03T01:29:24;94057.34;;;11.05;59.84
36932;BME280;22847;42.654;23.370;2023-04-03T01:31:55;94057.81;;;11.08;60.12
36932;BME280;22847;42.654;23.370;2023-04-03T01:34:21;94016.75;;;10.78;60.25
36932;BME280;22847;42.654;23.370;2023-04-03T01:36:47;94054.25;;;11.01;59.15
36932;BME280;22847;42.654;23.370;2023-04-03T01:39:13;94053.09;;;10.96;60.19
36932;BME280;22847;42.654;23.370;2023-04-03T01:41:38;93863.81;;;9.72;59.75
36932;BME280;22847;42.654;23.370;2023-04-03T01:44:04;93822.91;;;9.48;60.19
36932;BME280;22847;42.654;23.370;2023-04-03T01:46:30;94078.69;;;10.84;60.41
36932;BME280;22847;42.654;23.370;2023-04-03T01:48:56;94025.53;;;10.61;59.86
36932;BME280;22847;42.654;23.370;2023-04-03T01:51:21;93860.50;;;9.62;60.18
36932;BME280;22847;42.654;23.370;2023-04-03T01:53:47;94060.44;;;10.84;59.50
36932;BME280;22847;42.654;23.370;2023-04-03T01:56:12;93952.69;;;9.93;58.99
36932;BME280;22847;42.654;23.370;2023-04-03T01:58:38;94056.44;;;10.48;60.47
36932;BME280;22847;42.654;23.370;2023-04-03T02:01:03;94073.75;;;10.65;60.61
36932;BME280;22847;42.654;23.370;2023-04-03T02:03:29;94003.78;;;9.86;59.54
36932;BME280;22847;42.654;23.370;2023-04-03T02:05:54;94069.19;;;9.91;59.75
36932;BME280;22847;42.654;23.370;2023-04-03T02:08:20;94068.78;;;10.38;60.49
36932;BME280;22847;42.654;23.370;2023-04-03T02:10:49;94095.50;;;10.40;60.05
36932;BME280;22847;42.654;23.370;2023-04-03T02:13:16;94047.31;;;10.44;61.08
36932;BME280;22847;42.654;23.370;2023-04-03T02:15:42;93848.88;;;9.32;60.36
36932;BME280;22847;42.654;23.370;2023-04-03T02:18:08;94063.59;;;10.54;59.93
36932;BME280;22847;42.654;23.370;2023-04-03T02:20:34;94071.94;;;10.57;60.23
36932;BME280;22847;42.654;23.370;2023-04-03T02:22:59;94043.34;;;10.32;60.23
36932;BME280;22847;42.654;23.370;2023-04-03T02:25:25;94034.28;;;10.44;60.81
36932;BME280;22847;42.654;23.370;2023-04-03T02:27:51;94038.97;;;10.40;61.04
36932;BME280;22847;42.654;23.370;2023-04-03T02:30:16;94027.41;;;10.35;61.35
36932;BME280;22847;42.654;23.370;2023-04-03T02:32:42;94052.06;;;10.48;60.24
36932;BME280;22847;42.654;23.370;2023-04-03T02:35:09;93897.41;;;9.49;61.46
36932;BME280;22847;42.654;23.370;2023-04-03T02:37:35;94007.50;;;10.17;60.77
36932;BME280;22847;42.654;23.370;2023-04-03T02:40:02;94047.13;;;10.37;61.23
36932;BME280;22847;42.654;23.370;2023-04-03T02:42:27;93851.13;;;8.93;60.30
36932;BME280;22847;42.654;23.370;2023-04-03T02:44:53;94048.25;;;10.26;61.72
36932;BME280;22847;42.654;23.370;2023-04-03T02:47:18;94045.63;;;10.26;61.54
36932;BME280;22847;42.654;23.370;2023-04-03T02:49:44;94006.03;;;9.81;60.90
36932;BME280;22847;42.654;23.370;2023-04-03T02:52:11;93849.59;;;9.08;61.95
36932;BME280;22847;42.654;23.370;2023-04-03T02:54:36;94011.66;;;10.10;61.62
36932;BME280;22847;42.654;23.370;2023-04-03T02:57:02;94021.50;;;10.16;61.92
36932;BME280;22847;42.654;23.370;2023-04-03T02:59:27;93899.25;;;9.23;61.14
36932;BME280;22847;42.654;23.370;2023-04-03T03:01:53;93993.41;;;9.94;60.43
36932;BME280;22847;42.654;23.370;2023-04-03T03:04:18;94025.63;;;10.01;61.87
36932;BME280;22847;42.654;23.370;2023-04-03T03:06:44;94034.34;;;10.18;61.88
36932;BME280;22847;42.654;23.370;2023-04-03T03:09:09;93863.81;;;8.96;60.17
36932;BME280;22847;42.654;23.370;2023-04-03T03:11:35;94009.84;;;9.69;61.27
36932;BME280;22847;42.654;23.370;2023-04-03T03:14:00;94016.00;;;9.94;62.24
36932;BME280;22847;42.654;23.370;2023-04-03T03:16:26;93830.41;;;8.75;60.16
36932;BME280;22847;42.654;23.370;2023-04-03T03:18:51;93877.88;;;9.11;60.91
36932;BME280;22847;42.654;23.370;2023-04-03T03:21:17;94052.66;;;10.00;61.07
36932;BME280;22847;42.654;23.370;2023-04-03T03:23:42;94026.09;;;9.97;61.06
36932;BME280;22847;42.654;23.370;2023-04-03T03:26:10;94025.72;;;9.83;60.13
36932;BME280;22847;42.654;23.370;2023-04-03T03:28:36;93991.03;;;9.75;61.53
36932;BME280;22847;42.654;23.370;2023-04-03T03:31:03;94048.22;;;9.93;60.70
36932;BME280;22847;42.654;23.370;2023-04-03T03:33:28;93831.81;;;8.44;60.69
36932;BME280;22847;42.654;23.370;2023-04-03T03:35:54;93834.88;;;8.22;61.03
36932;BME280;22847;42.654;23.370;2023-04-03T03:38:20;94015.34;;;9.06;61.83
36932;BME280;22847;42.654;23.370;2023-04-03T03:40:50;94036.59;;;9.02;62.81
36932;BME280;22847;42.654;23.370;2023-04-03T03:43:16;93865.31;;;7.94;62.51
36932;BME280;22847;42.654;23.370;2023-04-03T03:45:42;94023.19;;;9.14;62.91
36932;BME280;22847;42.654;23.370;2023-04-03T03:48:08;93899.91;;;8.30;62.74
36932;BME280;22847;42.654;23.370;2023-04-03T03:50:33;93961.75;;;8.70;61.79
36932;BME280;22847;42.654;23.370;2023-04-03T03:52:59;93839.50;;;8.28;63.30
36932;BME280;22847;42.654;23.370;2023-04-03T03:55:24;94021.16;;;9.52;61.18
36932;BME280;22847;42.654;23.370;2023-04-03T03:57:50;93849.38;;;8.42;61.26
36932;BME280;22847;42.654;23.370;2023-04-03T04:00:15;94011.84;;;9.41;60.64
36932;BME280;22847;42.654;23.370;2023-04-03T04:02:41;93983.88;;;9.17;60.31
36932;BME280;22847;42.654;23.370;2023-04-03T04:05:07;94001.13;;;9.44;61.01
36932;BME280;22847;42.654;23.370;2023-04-03T04:07:33;94018.50;;;9.69;61.43
36932;BME280;22847;42.654;23.370;2023-04-03T04:09:58;94016.34;;;9.65;60.89
36932;BME280;22847;42.654;23.370;2023-04-03T04:12:23;93869.25;;;8.77;60.77
36932;BME280;22847;42.654;23.370;2023-04-03T04:14:49;93972.94;;;9.31;60.55
36932;BME280;22847;42.654;23.370;2023-04-03T04:17:14;94039.31;;;9.69;60.87
36932;BME280;22847;42.654;23.370;2023-04-03T04:19:40;93883.16;;;8.68;61.05
36932;BME280;22847;42.654;23.370;2023-04-03T04:22:05;94018.19;;;9.47;61.49
36932;BME280;22847;42.654;23.370;2023-04-03T04:24:31;94033.28;;;9.69;61.26
36932;BME280;22847;42.654;23.370;2023-04-03T04:26:56;93919.94;;;8.81;61.53
36932;BME280;22847;42.654;23.370;2023-04-03T04:29:22;93898.88;;;8.66;62.81
36932;BME280;22847;42.654;23.370;2023-04-03T04:31:47;94003.06;;;9.42;62.85
36932;BME280;22847;42.654;23.370;2023-04-03T04:34:12;93972.00;;;9.15;63.05
36932;BME280;22847;42.654;23.370;2023-04-03T04:36:38;93846.91;;;8.40;62.21
36932;BME280;22847;42.654;23.370;2023-04-03T04:39:04;93858.56;;;8.36;62.39
36932;BME280;22847;42.654;23.370;2023-04-03T04:41:30;94061.06;;;9.60;62.58
36932;BME280;22847;42.654;23.370;2023-04-03T04:43:56;93840.22;;;8.38;63.17
36932;BME280;22847;42.654;23.370;2023-04-03T04:46:22;94054.47;;;9.74;62.30
36932;BME280;22847;42.654;23.370;2023-04-03T04:48:47;94047.28;;;9.68;62.08
36932;BME280;22847;42.654;23.370;2023-04-03T04:51:14;94082.19;;;9.83;62.90
36932;BME280;22847;42.654;23.370;2023-04-03T04:53:39;94015.63;;;9.55;62.58
36932;BME280;22847;42.654;23.370;2023-04-03T04:56:05;94056.16;;;9.83;63.10
36932;BME280;22847;42.654;23.370;2023-04-03T04:58:31;94034.38;;;9.58;62.93
36932;BME280;22847;42.654;23.370;2023-04-03T05:01:07;94061.75;;;9.96;62.32
36932;BME280;22847;42.654;23.370;2023-04-03T05:03:33;93882.88;;;8.79;62.69
36932;BME280;22847;42.654;23.370;2023-04-03T05:05:59;94086.84;;;10.05;60.34
36932;BME280;22847;42.654;23.370;2023-04-03T05:08:24;94128.13;;;9.92;61.40
36932;BME280;22847;42.654;23.370;2023-04-03T05:10:49;94032.59;;;9.59;61.09
36932;BME280;22847;42.654;23.370;2023-04-03T05:13:15;93937.47;;;8.79;60.53
36932;BME280;22847;42.654;23.370;2023-04-03T05:15:42;93920.53;;;7.41;63.92
36932;BME280;22847;42.654;23.370;2023-04-03T05:18:07;94100.53;;;8.59;64.69
36932;BME280;22847;42.654;23.370;2023-04-03T05:20:35;94113.56;;;8.94;65.51
36932;BME280;22847;42.654;23.370;2023-04-03T05:23:00;94105.44;;;9.15;62.98
36932;BME280;22847;42.654;23.370;2023-04-03T05:25:26;94077.72;;;9.24;63.22
36932;BME280;22847;42.654;23.370;2023-04-03T05:27:52;94097.72;;;9.67;62.55
36932;BME280;22847;42.654;23.370;2023-04-03T05:30:18;94079.75;;;9.81;62.34
36932;BME280;22847;42.654;23.370;2023-04-03T05:32:43;93879.47;;;8.78;62.39
36932;BME280;22847;42.654;23.370;2023-04-03T05:35:09;93921.00;;;9.22;61.93
36932;BME280;22847;42.654;23.370;2023-04-03T05:37:35;94087.88;;;10.46;61.60
36932;BME280;22847;42.654;23.370;2023-04-03T05:40:01;94092.63;;;10.59;60.46
36932;BME280;22847;42.654;23.370;2023-04-03T05:42:26;94087.75;;;10.64;60.78
36932;BME280;22847;42.654;23.370;2023-04-03T05:44:52;93915.34;;;9.68;59.93
36932;BME280;22847;42.654;23.370;2023-04-03T05:47:18;94111.91;;;10.82;59.70
36932;BME280;22847;42.654;23.370;2023-04-03T05:49:44;93939.66;;;9.85;60.02
36932;BME280;22847;42.654;23.370;2023-04-03T05:52:29;94077.19;;;10.82;60.83
36932;BME280;22847;42.654;23.370;2023-04-03T05:54:55;94050.78;;;10.60;61.00
36932;BME280;22847;42.654;23.370;2023-04-03T05:57:21;93963.22;;;10.25;60.53
36932;BME280;22847;42.654;23.370;2023-04-03T05:59:47;94072.84;;;11.06;60.88
36932;BME280;22847;42.654;23.370;2023-04-03T06:02:20;94005.97;;;10.81;60.46
36932;BME280;22847;42.654;23.370;2023-04-03T06:04:46;94068.75;;;11.36;60.35
36932;BME280;22847;42.654;23.370;2023-04-03T06:07:14;94075.59;;;11.45;60.72
36932;BME280;22847;42.654;23.370;2023-04-03T06:09:41;94058.81;;;11.48;60.90
36932;BME280;22847;42.654;23.370;2023-04-03T06:12:06;94049.34;;;11.47;60.99
36932;BME280;22847;42.654;23.370;2023-04-03T06:14:32;93927.44;;;10.84;60.63
36932;BME280;22847;42.654;23.370;2023-04-03T06:16:57;94004.00;;;11.48;58.60
36932;BME280;22847;42.654;23.370;2023-04-03T06:19:23;94001.72;;;11.37;57.82
36932;BME280;22847;42.654;23.370;2023-04-03T06:21:48;93868.78;;;10.56;57.98
36932;BME280;22847;42.654;23.370;2023-04-03T06:24:16;93761.81;;;9.84;58.10
36932;BME280;22847;42.654;23.370;2023-04-03T06:26:42;94001.41;;;11.24;58.91
36932;BME280;22847;42.654;23.370;2023-04-03T06:29:07;93882.78;;;10.63;58.70
36932;BME280;22847;42.654;23.370;2023-04-03T06:31:33;94054.69;;;11.70;59.33
36932;BME280;22847;42.654;23.370;2023-04-03T06:33:59;93878.88;;;10.51;57.75
36932;BME280;22847;42.654;23.370;2023-04-03T06:36:24;94108.59;;;11.79;57.93
36932;BME280;22847;42.654;23.370;2023-04-03T06:38:51;94085.19;;;12.01;57.47
36932;BME280;22847;42.654;23.370;2023-04-03T06:41:17;94056.00;;;11.57;58.76
36932;BME280;22847;42.654;23.370;2023-04-03T06:43:43;93984.28;;;11.13;59.06
36932;BME280;22847;42.654;23.370;2023-04-03T06:46:14;94060.44;;;11.73;57.23
36932;BME280;22847;42.654;23.370;2023-04-03T06:48:40;94098.94;;;11.87;57.50
36932;BME280;22847;42.654;23.370;2023-04-03T06:51:17;93956.25;;;10.99;56.94
36932;BME280;22847;42.654;23.370;2023-04-03T06:53:44;94031.22;;;11.61;58.62
36932;BME280;22847;42.654;23.370;2023-04-03T06:56:09;94109.72;;;11.76;57.42
36932;BME280;22847;42.654;23.370;2023-04-03T06:58:35;94103.84;;;11.82;57.71
36932;BME280;22847;42.654;23.370;2023-04-03T07:01:01;93939.16;;;10.88;57.04
36932;BME280;22847;42.654;23.370;2023-04-03T07:03:26;93889.94;;;10.77;58.90
36932;BME280;22847;42.654;23.370;2023-04-03T07:05:51;94070.53;;;11.92;58.32
36932;BME280;22847;42.654;23.370;2023-04-03T07:08:17;94082.25;;;12.04;59.11
36932;BME280;22847;42.654;23.370;2023-04-03T07:10:42;94069.97;;;12.13;57.78
36932;BME280;22847;42.654;23.370;2023-04-03T07:13:08;94070.63;;;12.15;58.38
36932;BME280;22847;42.654;23.370;2023-04-03T07:15:33;93786.00;;;10.66;57.08
36932;BME280;22847;42.654;23.370;2023-04-03T07:17:58;94062.00;;;12.45;56.86
36932;BME280;22847;42.654;23.370;2023-04-03T07:20:24;93790.03;;;10.85;57.26
36932;BME280;22847;42.654;23.370;2023-04-03T07:22:49;94031.38;;;12.23;58.22
36932;BME280;22847;42.654;23.370;2023-04-03T07:25:15;94055.91;;;12.53;57.28
36932;BME280;22847;42.654;23.370;2023-04-03T07:27:41;93921.81;;;11.83;56.88
36932;BME280;22847;42.654;23.370;2023-04-03T07:30:07;93869.50;;;11.60;56.86
36932;BME280;22847;42.654;23.370;2023-04-03T07:32:32;93894.56;;;11.77;56.28
36932;BME280;22847;42.654;23.370;2023-04-03T07:34:58;93890.34;;;11.68;55.94
36932;BME280;22847;42.654;23.370;2023-04-03T07:37:23;94053.69;;;12.42;58.14
36932;BME280;22847;42.654;23.370;2023-04-03T07:39:49;94043.78;;;12.60;56.30
36932;BME280;22847;42.654;23.370;2023-04-03T07:42:14;93842.19;;;11.32;56.63
36932;BME280;22847;42.654;23.370;2023-04-03T07:44:39;93873.69;;;11.30;57.54
36932;BME280;22847;42.654;23.370;2023-04-03T07:47:06;94068.72;;;12.40;59.23
36932;BME280;22847;42.654;23.370;2023-04-03T07:49:31;94056.41;;;12.79;56.27
36932;BME280;22847;42.654;23.370;2023-04-03T07:51:58;94032.31;;;12.61;57.65
36932;BME280;22847;42.654;23.370;2023-04-03T07:54:23;94026.00;;;12.56;57.87
36932;BME280;22847;42.654;23.370;2023-04-03T07:56:49;93864.41;;;11.75;58.58
36932;BME280;22847;42.654;23.370;2023-04-03T07:59:14;94028.22;;;12.89;57.78
36932;BME280;22847;42.654;23.370;2023-04-03T08:01:39;94040.13;;;13.23;56.96
36932;BME280;22847;42.654;23.370;2023-04-03T08:04:05;94029.94;;;13.43;54.57
36932;BME280;22847;42.654;23.370;2023-04-03T08:06:31;94059.16;;;13.09;57.14
36932;BME280;22847;42.654;23.370;2023-04-03T08:09:00;94031.97;;;13.18;56.55
36932;BME280;22847;42.654;23.370;2023-04-03T08:11:25;94035.09;;;13.36;53.92
36932;BME280;22847;42.654;23.370;2023-04-03T08:13:52;94027.94;;;13.07;55.52
36932;BME280;22847;42.654;23.370;2023-04-03T08:16:20;94011.78;;;12.19;56.39
36932;BME280;22847;42.654;23.370;2023-04-03T08:18:47;94022.09;;;12.74;55.94
36932;BME280;22847;42.654;23.370;2023-04-03T08:21:12;93965.59;;;12.12;56.45
36932;BME280;22847;42.654;23.370;2023-04-03T08:23:41;94018.56;;;12.36;56.83
36932;BME280;22847;42.654;23.370;2023-04-03T08:26:12;93984.28;;;12.31;56.85
36932;BME280;22847;42.654;23.370;2023-04-03T08:28:38;94013.69;;;12.64;56.67
36932;BME280;22847;42.654;23.370;2023-04-03T08:31:06;93981.34;;;12.57;56.49
36932;BME280;22847;42.654;23.370;2023-04-03T08:33:33;94008.69;;;12.77;56.57
36932;BME280;22847;42.654;23.370;2023-04-03T08:36:01;94018.78;;;13.03;55.36
36932;BME280;22847;42.654;23.370;2023-04-03T08:38:27;93992.25;;;12.91;56.53
36932;BME280;22847;42.654;23.370;2023-04-03T08:49:40;94002.69;;;12.07;58.06
36932;BME280;22847;42.654;23.370;2023-04-03T08:52:14;94000.09;;;12.69;58.31
36932;BME280;22847;42.654;23.370;2023-04-03T08:54:53;93897.78;;;12.41;56.24
36932;BME280;22847;42.654;23.370;2023-04-03T08:57:33;93981.88;;;13.21;56.38
36932;BME280;22847;42.654;23.370;2023-04-03T09:00:04;93804.75;;;12.32;55.87
36932;BME280;22847;42.654;23.370;2023-04-03T09:02:46;93982.94;;;13.78;55.05
36932;BME280;22847;42.654;23.370;2023-04-03T09:05:16;93844.25;;;12.89;54.65
36932;BME280;22847;42.654;23.370;2023-04-03T09:07:47;93951.31;;;13.80;54.59
36932;BME280;22847;42.654;23.370;2023-04-03T09:10:17;93971.84;;;13.91;54.08
36932;BME280;22847;42.654;23.370;2023-04-03T09:13:19;93944.91;;;13.68;53.63
36932;BME280;22847;42.654;23.370;2023-04-03T09:15:44;93955.56;;;13.96;53.21
36932;BME280;22847;42.654;23.370;2023-04-03T09:18:35;93931.06;;;13.74;53.35
36932;BME280;22847;42.654;23.370;2023-04-03T09:21:15;93970.09;;;13.83;53.23
36932;BME280;22847;42.654;23.370;2023-04-03T09:23:59;93930.34;;;13.65;53.25
36932;BME280;22847;42.654;23.370;2023-04-03T09:26:29;93874.84;;;13.40;54.35
36932;BME280;22847;42.654;23.370;2023-04-03T09:28:58;93956.56;;;13.95;53.10
36932;BME280;22847;42.654;23.370;2023-04-03T09:31:27;93929.69;;;14.07;53.73
36932;BME280;22847;42.654;23.370;2023-04-03T09:34:03;93955.78;;;14.30;52.67
36932;BME280;22847;42.654;23.370;2023-04-03T09:37:00;93911.16;;;14.09;52.73
36932;BME280;22847;42.654;23.370;2023-04-03T09:39:32;93772.34;;;13.29;52.28
36932;BME280;22847;42.654;23.370;2023-04-03T09:42:13;93916.06;;;14.33;52.61
36932;BME280;22847;42.654;23.370;2023-04-03T09:44:41;93905.94;;;14.30;51.25
36932;BME280;22847;42.654;23.370;2023-04-03T09:47:36;93941.81;;;14.59;50.82
36932;BME280;22847;42.654;23.370;2023-04-03T09:50:17;93768.91;;;13.43;49.27
36932;BME280;22847;42.654;23.370;2023-04-03T09:52:49;93905.69;;;14.25;50.21
36932;BME280;22847;42.654;23.370;2023-04-03T09:57:42;93761.69;;;13.45;49.08
36932;BME280;22847;42.654;23.370;2023-04-03T10:00:31;93953.50;;;14.42;49.71
36932;BME280;22847;42.654;23.370;2023-04-03T10:02:58;93897.19;;;14.23;49.29
36932;BME280;22847;42.654;23.370;2023-04-03T10:07:49;93906.09;;;14.07;50.56
36932;BME280;22847;42.654;23.370;2023-04-03T10:12:42;93825.25;;;13.24;51.66
36932;BME280;22847;42.654;23.370;2023-04-03T10:15:13;93930.34;;;13.95;50.95
36932;BME280;22847;42.654;23.370;2023-04-03T10:18:00;93931.50;;;14.07;51.13
36932;BME280;22847;42.654;23.370;2023-04-03T10:20:37;93941.53;;;14.18;50.34
36932;BME280;22847;42.654;23.370;2023-04-03T10:23:27;93927.09;;;13.93;49.78
36932;BME280;22847;42.654;23.370;2023-04-03T10:26:13;93915.94;;;14.05;50.26
36932;BME280;22847;42.654;23.370;2023-04-03T10:29:21;93918.00;;;13.45;51.05
36932;BME280;22847;42.654;23.370;2023-04-03T10:34:21;93872.38;;;13.68;50.87
36932;BME280;22847;42.654;23.370;2023-04-03T10:37:06;93929.75;;;14.14;50.85
36932;BME280;22847;42.654;23.370;2023-04-03T10:40:20;93759.53;;;13.34;50.12
36932;BME280;22847;42.654;23.370;2023-04-03T10:43:04;93888.13;;;14.04;49.81
36932;BME280;22847;42.654;23.370;2023-04-03T10:56:35;93893.25;;;13.18;51.92
36932;BME280;22847;42.654;23.370;2023-04-03T11:01:37;93892.88;;;13.65;51.47
36932;BME280;22847;42.654;23.370;2023-04-03T11:04:05;93750.53;;;12.78;52.07
36932;BME280;22847;42.654;23.370;2023-04-03T11:09:33;93937.94;;;13.75;52.87
36932;BME280;22847;42.654;23.370;2023-04-03T11:12:56;93733.13;;;12.56;54.04
36932;BME280;22847;42.654;23.370;2023-04-03T11:14:56;93907.72;;;13.06;55.98
36932;BME280;22847;42.654;23.370;2023-04-03T11:22:32;93874.38;;;12.47;59.20
36932;BME280;22847;42.654;23.370;2023-04-03T11:25:04;93883.09;;;12.17;61.03
36932;BME280;22847;42.654;23.370;2023-04-03T11:27:41;93727.97;;;11.73;61.46
36932;BME280;22847;42.654;23.370;2023-04-03T11:31:02;93813.28;;;12.26;61.45
36932;BME280;22847;42.654;23.370;2023-04-03T11:33:43;93899.16;;;12.74;63.12
36932;BME280;22847;42.654;23.370;2023-04-03T11:36:18;93929.69;;;12.59;64.16
36932;BME280;22847;42.654;23.370;2023-04-03T11:38:46;93920.91;;;12.29;65.40
36932;BME280;22847;42.654;23.370;2023-04-03T11:41:13;93905.25;;;11.98;67.21
36932;BME280;22847;42.654;23.370;2023-04-03T11:44:13;93900.47;;;11.63;69.39
36932;BME280;22847;42.654;23.370;2023-04-03T11:46:56;93914.50;;;11.70;69.79
36932;BME280;22847;42.654;23.370;2023-04-03T11:49:57;93909.94;;;11.72;70.19
36932;BME280;22847;42.654;23.370;2023-04-03T12:01:06;93866.16;;;11.82;72.88
36932;BME280;22847;42.654;23.370;2023-04-03T12:16:05;93917.63;;;11.74;75.52
36932;BME280;22847;42.654;23.370;2023-04-03T12:21:14;93702.66;;;10.42;76.00
36932;BME280;22847;42.654;23.370;2023-04-03T12:29:03;93930.91;;;11.40;76.40
36932;BME280;22847;42.654;23.370;2023-04-03T12:32:21;93898.28;;;11.36;76.95
36932;BME280;22847;42.654;23.370;2023-04-03T12:37:49;93900.00;;;11.04;78.82
36932;BME280;22847;42.654;23.370;2023-04-03T12:48:26;93873.97;;;10.88;82.08
36932;BME280;22847;42.654;23.370;2023-04-03T12:50:52;93863.84;;;11.01;81.13
36932;BME280;22847;42.654;23.370;2023-04-03T12:53:21;93638.16;;;9.72;80.58
36932;BME280;22847;42.654;23.370;2023-04-03T12:55:49;93868.69;;;11.21;80.22
36932;BME280;22847;42.654;23.370;2023-04-03T12:58:28;93855.03;;;11.02;80.64
36932;BME280;22847;42.654;23.370;2023-04-03T13:01:09;93885.50;;;11.57;79.22
36932;BME280;22847;42.654;23.370;2023-04-03T13:03:38;93680.88;;;10.35;79.33
36932;BME280;22847;42.654;23.370;2023-04-03T13:06:04;93642.81;;;10.17;78.82
36932;BME280;22847;42.654;23.370;2023-04-03T13:08:31;93873.22;;;11.27;79.70
36932;BME280;22847;42.654;23.370;2023-04-03T13:11:06;93717.38;;;9.70;83.82
36932;BME280;22847;42.654;23.370;2023-04-03T13:13:33;93850.38;;;10.65;81.66
36932;BME280;22847;42.654;23.370;2023-04-03T13:15:59;93837.00;;;10.60;82.95
36932;BME280;22847;42.654;23.370;2023-04-03T13:20:52;93847.59;;;10.67;83.29
36932;BME280;22847;42.654;23.370;2023-04-03T13:23:19;93874.59;;;10.90;82.76
36932;BME280;22847;42.654;23.370;2023-04-03T13:25:46;93865.78;;;11.07;82.50
36932;BME280;22847;42.654;23.370;2023-04-03T13:28:17;93647.09;;;9.46;83.64
36932;BME280;22847;42.654;23.370;2023-04-03T13:31:04;93898.06;;;10.90;82.76
36932;BME280;22847;42.654;23.370;2023-04-03T13:33:34;93824.81;;;10.53;84.01
36932;BME280;22847;42.654;23.370;2023-04-03T13:36:11;93867.31;;;10.45;86.98
36932;BME280;22847;42.654;23.370;2023-04-03T13:38:41;93858.53;;;10.46;86.14
36932;BME280;22847;42.654;23.370;2023-04-03T13:41:37;93853.25;;;10.87;85.79
36932;BME280;22847;42.654;23.370;2023-04-03T13:46:40;93851.19;;;10.66;86.17
36932;BME280;22847;42.654;23.370;2023-04-03T13:51:45;93878.06;;;10.58;85.59
36932;BME280;22847;42.654;23.370;2023-04-03T13:54:28;93877.56;;;10.63;85.83
36932;BME280;22847;42.654;23.370;2023-04-03T13:56:56;93652.63;;;9.34;85.59
36932;BME280;22847;42.654;23.370;2023-04-03T13:59:27;93832.91;;;9.77;90.39
36932;BME280;22847;42.654;23.370;2023-04-03T14:04:43;93753.81;;;10.02;87.76
36932;BME280;22847;42.654;23.370;2023-04-03T14:07:11;93801.06;;;10.15;87.66
36932;BME280;22847;42.654;23.370;2023-04-03T14:09:37;93797.28;;;10.10;88.32
36932;BME280;22847;42.654;23.370;2023-04-03T14:12:11;93786.38;;;9.98;90.17
36932;BME280;22847;42.654;23.370;2023-04-03T14:14:37;93789.78;;;9.91;90.73
36932;BME280;22847;42.654;23.370;2023-04-03T14:17:17;93830.94;;;9.87;91.33
36932;BME280;22847;42.654;23.370;2023-04-03T14:19:44;93647.09;;;9.13;89.78
36932;BME280;22847;42.654;23.370;2023-04-03T14:22:20;93809.34;;;10.35;89.53
36932;BME280;22847;42.654;23.370;2023-04-03T14:24:47;93832.56;;;10.93;87.86
36932;BME280;22847;42.654;23.370;2023-04-03T14:29:42;93782.69;;;10.88;84.71
36932;BME280;22847;42.654;23.370;2023-04-03T14:32:11;93806.00;;;10.82;86.22
36932;BME280;22847;42.654;23.370;2023-04-03T14:34:37;93817.81;;;11.16;85.06
36932;BME280;22847;42.654;23.370;2023-04-03T14:37:04;93799.59;;;10.21;89.05
36932;BME280;22847;42.654;23.370;2023-04-03T14:39:30;93823.75;;;10.86;87.85